Aviation Digital Data Service (ADDS)

Output produced by METARs form (1448 UTC 25 January 2020)
found at http://www.aviationweather.gov/metar/data/
 
METAR text: RJSI 251000Z 33005KT 280V020 9999 FEW030 SCT040 M01/M08 Q1029
Conditions at: RJSI (HANAMAKI AIRPORT, JP) observed 1000 UTC 25 January 2020
Temperature: -1.0°C (30°F)
Dewpoint: -8.0°C (18°F) [RH = 59%]
Pressure (altimeter): 30.38 inches Hg (1029.0 mb)
Winds: from the NNW (330 degrees) at 6 MPH (5 knots; 2.6 m/s)
Visibility: 6 or more miles (10+ km)
Ceiling: at least 12,000 feet AGL
Clouds: few clouds at 3000 feet AGL
scattered clouds at 4000 feet AGL
Weather: no significant weather observed at this time

METAR text: RJSI 250900Z 30005KT 270V360 9999 FEW040 SCT/// M01/M10 Q1029
Conditions at: RJSI (HANAMAKI AIRPORT, JP) observed 0900 UTC 25 January 2020
Temperature: -1.0°C (30°F)
Dewpoint: -10.0°C (14°F) [RH = 50%]
Pressure (altimeter): 30.38 inches Hg (1029.0 mb)
Winds: from the WNW (300 degrees) at 6 MPH (5 knots; 2.6 m/s)
Visibility: 6 or more miles (10+ km)
Ceiling: at least 12,000 feet AGL
Clouds: few clouds at 4000 feet AGL
Weather: no significant weather observed at this time

METAR text: RJSI 250800Z 30009KT 270V330 9999 FEW040 SCT/// M00/M09 Q1029
Conditions at: RJSI (HANAMAKI AIRPORT, JP) observed 0800 UTC 25 January 2020
Temperature: 0.0°C (32°F)
Dewpoint: -9.0°C (16°F) [RH = 51%]
Pressure (altimeter): 30.38 inches Hg (1029.0 mb)
Winds: from the WNW (300 degrees) at 10 MPH (9 knots; 4.6 m/s)
Visibility: 6 or more miles (10+ km)
Ceiling: at least 12,000 feet AGL
Clouds: few clouds at 4000 feet AGL
Weather: no significant weather observed at this time

METAR text: RJSI 250700Z 29011KT 260V330 9999 FEW050 00/M09 Q1028
Conditions at: RJSI (HANAMAKI AIRPORT, JP) observed 0700 UTC 25 January 2020
Temperature: 0.0°C (32°F)
Dewpoint: -9.0°C (16°F) [RH = 51%]
Pressure (altimeter): 30.35 inches Hg (1028.0 mb)
Winds: from the WNW (290 degrees) at 13 MPH (11 knots; 5.7 m/s)
Visibility: 6 or more miles (10+ km)
Ceiling: at least 12,000 feet AGL
Clouds: few clouds at 5000 feet AGL
Weather: no significant weather observed at this time

METAR text: RJSI 250600Z 29013KT 240V330 9999 FEW050 01/M09 Q1028
Conditions at: RJSI (HANAMAKI AIRPORT, JP) observed 0600 UTC 25 January 2020
Temperature: 1.0°C (34°F)
Dewpoint: -9.0°C (16°F) [RH = 47%]
Pressure (altimeter): 30.35 inches Hg (1028.0 mb)
Winds: from the WNW (290 degrees) at 15 MPH (13 knots; 6.7 m/s)
Visibility: 6 or more miles (10+ km)
Ceiling: at least 12,000 feet AGL
Clouds: few clouds at 5000 feet AGL
Weather: no significant weather observed at this time

METAR text: RJSI 250500Z 29014KT 260V330 9999 FEW050 02/M08 Q1027
Conditions at: RJSI (HANAMAKI AIRPORT, JP) observed 0500 UTC 25 January 2020
Temperature: 2.0°C (36°F)
Dewpoint: -8.0°C (18°F) [RH = 47%]
Pressure (altimeter): 30.32 inches Hg (1027.0 mb)
Winds: from the WNW (290 degrees) at 16 MPH (14 knots; 7.2 m/s)
Visibility: 6 or more miles (10+ km)
Ceiling: at least 12,000 feet AGL
Clouds: few clouds at 5000 feet AGL
Weather: no significant weather observed at this time

METAR text: RJSI 250400Z 29013G25KT 260V330 9999 FEW050 SCT/// 02/M08 Q1027
Conditions at: RJSI (HANAMAKI AIRPORT, JP) observed 0400 UTC 25 January 2020
Temperature: 2.0°C (36°F)
Dewpoint: -8.0°C (18°F) [RH = 47%]
Pressure (altimeter): 30.32 inches Hg (1027.0 mb)
Winds: from the WNW (290 degrees) at 15 MPH (13 knots; 6.7 m/s)
gusting to 29 MPH (25 knots; 12.9 m/s)
Visibility: 6 or more miles (10+ km)
Ceiling: at least 12,000 feet AGL
Clouds: few clouds at 5000 feet AGL
Weather: no significant weather observed at this time

METAR text: RJSI 250300Z 28012G22KT 240V310 9999 FEW050 02/M09 Q1028
Conditions at: RJSI (HANAMAKI AIRPORT, JP) observed 0300 UTC 25 January 2020
Temperature: 2.0°C (36°F)
Dewpoint: -9.0°C (16°F) [RH = 44%]
Pressure (altimeter): 30.35 inches Hg (1028.0 mb)
Winds: from the W (280 degrees) at 14 MPH (12 knots; 6.2 m/s)
gusting to 25 MPH (22 knots; 11.3 m/s)
Visibility: 6 or more miles (10+ km)
Ceiling: at least 12,000 feet AGL
Clouds: few clouds at 5000 feet AGL
Weather: no significant weather observed at this time

METAR text: RJSI 250200Z 28013KT 9999 FEW040 02/M09 Q1028
Conditions at: RJSI (HANAMAKI AIRPORT, JP) observed 0200 UTC 25 January 2020
Temperature: 2.0°C (36°F)
Dewpoint: -9.0°C (16°F) [RH = 44%]
Pressure (altimeter): 30.35 inches Hg (1028.0 mb)
Winds: from the W (280 degrees) at 15 MPH (13 knots; 6.7 m/s)
Visibility: 6 or more miles (10+ km)
Ceiling: at least 12,000 feet AGL
Clouds: few clouds at 4000 feet AGL
Weather: no significant weather observed at this time

METAR text: RJSI 250100Z 31010KT 270V350 9999 FEW030 SCT040 02/M09 Q1029
Conditions at: RJSI (HANAMAKI AIRPORT, JP) observed 0100 UTC 25 January 2020
Temperature: 2.0°C (36°F)
Dewpoint: -9.0°C (16°F) [RH = 44%]
Pressure (altimeter): 30.38 inches Hg (1029.0 mb)
Winds: from the NW (310 degrees) at 12 MPH (10 knots; 5.1 m/s)
Visibility: 6 or more miles (10+ km)
Ceiling: at least 12,000 feet AGL
Clouds: few clouds at 3000 feet AGL
scattered clouds at 4000 feet AGL
Weather: no significant weather observed at this time

METAR text: RJSI 250006Z 30012G22KT 250V340 9999 FEW030 SCT040 01/M10 Q1029 RMK 1CU030 3CU040 A3040
Conditions at: RJSI (HANAMAKI AIRPORT, JP) observed 0006 UTC 25 January 2020
Temperature: 1.0°C (34°F)
Dewpoint: -10.0°C (14°F) [RH = 44%]
Pressure (altimeter): 30.38 inches Hg (1029.0 mb)
Winds: from the WNW (300 degrees) at 14 MPH (12 knots; 6.2 m/s)
gusting to 25 MPH (22 knots; 11.3 m/s)
Visibility: 6 or more miles (10+ km)
Ceiling: at least 12,000 feet AGL
Clouds: few clouds at 3000 feet AGL
scattered clouds at 4000 feet AGL
Weather: no significant weather observed at this time

METAR text: RJSI 250000Z VRB06KT 9999 FEW030 SCT040 01/M09 Q1029
Conditions at: RJSI (HANAMAKI AIRPORT, JP) observed 0000 UTC 25 January 2020
Temperature: 1.0°C (34°F)
Dewpoint: -9.0°C (16°F) [RH = 47%]
Pressure (altimeter): 30.38 inches Hg (1029.0 mb)
Winds: variable direction winds at 7 MPH (6 knots; 3.1 m/s)
Visibility: 6 or more miles (10+ km)
Ceiling: at least 12,000 feet AGL
Clouds: few clouds at 3000 feet AGL
scattered clouds at 4000 feet AGL
Weather: no significant weather observed at this time

METAR text: RJSI 242336Z 05006KT 9999 FEW030 SCT040 M00/M09 Q1029 RMK 1CU030 4CU040 A3039
Conditions at: RJSI (HANAMAKI AIRPORT, JP) observed 2336 UTC 24 January 2020
Temperature: 0.0°C (32°F)
Dewpoint: -9.0°C (16°F) [RH = 51%]
Pressure (altimeter): 30.38 inches Hg (1029.0 mb)
Winds: from the NE (50 degrees) at 7 MPH (6 knots; 3.1 m/s)
Visibility: 6 or more miles (10+ km)
Ceiling: at least 12,000 feet AGL
Clouds: few clouds at 3000 feet AGL
scattered clouds at 4000 feet AGL
Weather: no significant weather observed at this time

METAR text: RJSI 242333Z 31010KT 220V040 9999 FEW030 SCT040 00/M08 Q1029 RMK 1CU030 4CU040 A3039
Conditions at: RJSI (HANAMAKI AIRPORT, JP) observed 2333 UTC 24 January 2020
Temperature: 0.0°C (32°F)
Dewpoint: -8.0°C (18°F) [RH = 55%]
Pressure (altimeter): 30.38 inches Hg (1029.0 mb)
Winds: from the NW (310 degrees) at 12 MPH (10 knots; 5.1 m/s)
Visibility: 6 or more miles (10+ km)
Ceiling: at least 12,000 feet AGL
Clouds: few clouds at 3000 feet AGL
scattered clouds at 4000 feet AGL
Weather: no significant weather observed at this time

METAR text: RJSI 242300Z 07006KT 9999 FEW030 SCT040 M01/M07 Q1029
Conditions at: RJSI (HANAMAKI AIRPORT, JP) observed 2300 UTC 24 January 2020
Temperature: -1.0°C (30°F)
Dewpoint: -7.0°C (19°F) [RH = 64%]
Pressure (altimeter): 30.38 inches Hg (1029.0 mb)
Winds: from the ENE (70 degrees) at 7 MPH (6 knots; 3.1 m/s)
Visibility: 6 or more miles (10+ km)
Ceiling: at least 12,000 feet AGL
Clouds: few clouds at 3000 feet AGL
scattered clouds at 4000 feet AGL
Weather: no significant weather observed at this time

METAR text: RJSI 242240Z 07003KT 020V110 9999 FEW030 BKN040 M02/M08 Q1028 RMK 1CU030 5CU040 A3038
Conditions at: RJSI (HANAMAKI AIRPORT, JP) observed 2240 UTC 24 January 2020
Temperature: -2.0°C (28°F)
Dewpoint: -8.0°C (18°F) [RH = 63%]
Pressure (altimeter): 30.35 inches Hg (1028.0 mb)
Winds: from the ENE (70 degrees) at 3 MPH (3 knots; 1.5 m/s)
Visibility: 6 or more miles (10+ km)
Ceiling: 4000 feet AGL
Clouds: few clouds at 3000 feet AGL
broken clouds at 4000 feet AGL
Weather: no significant weather observed at this time

METAR text: RJSI 241000Z VRB03KT 9999 FEW030 SCT040 00/M09 Q1024
Conditions at: RJSI (HANAMAKI AIRPORT, JP) observed 1000 UTC 24 January 2020
Temperature: 0.0°C (32°F)
Dewpoint: -9.0°C (16°F) [RH = 51%]
Pressure (altimeter): 30.24 inches Hg (1024.0 mb)
Winds: variable direction winds at 3 MPH (3 knots; 1.5 m/s)
Visibility: 6 or more miles (10+ km)
Ceiling: at least 12,000 feet AGL
Clouds: few clouds at 3000 feet AGL
scattered clouds at 4000 feet AGL
Weather: no significant weather observed at this time

METAR text: RJSI 240900Z 33008G20KT 270V020 9999 FEW030 00/M08 Q1024
Conditions at: RJSI (HANAMAKI AIRPORT, JP) observed 0900 UTC 24 January 2020
Temperature: 0.0°C (32°F)
Dewpoint: -8.0°C (18°F) [RH = 55%]
Pressure (altimeter): 30.24 inches Hg (1024.0 mb)
Winds: from the NNW (330 degrees) at 9 MPH (8 knots; 4.1 m/s)
gusting to 23 MPH (20 knots; 10.3 m/s)
Visibility: 6 or more miles (10+ km)
Ceiling: at least 12,000 feet AGL
Clouds: few clouds at 3000 feet AGL
Weather: no significant weather observed at this time

METAR text: RJSI 240800Z 28012G28KT 220V320 9999 FEW030 01/M07 Q1021
Conditions at: RJSI (HANAMAKI AIRPORT, JP) observed 0800 UTC 24 January 2020
Temperature: 1.0°C (34°F)
Dewpoint: -7.0°C (19°F) [RH = 55%]
Pressure (altimeter): 30.15 inches Hg (1021.0 mb)
Winds: from the W (280 degrees) at 14 MPH (12 knots; 6.2 m/s)
gusting to 32 MPH (28 knots; 14.4 m/s)
Visibility: 6 or more miles (10+ km)
Ceiling: at least 12,000 feet AGL
Clouds: few clouds at 3000 feet AGL
Weather: no significant weather observed at this time

METAR text: RJSI 240700Z 28015G30KT 250V330 9999 VCSH FEW030 03/M04 Q1020
Conditions at: RJSI (HANAMAKI AIRPORT, JP) observed 0700 UTC 24 January 2020
Temperature: 3.0°C (37°F)
Dewpoint: -4.0°C (25°F) [RH = 60%]
Pressure (altimeter): 30.12 inches Hg (1020.0 mb)
Winds: from the W (280 degrees) at 17 MPH (15 knots; 7.7 m/s)
gusting to 34 MPH (30 knots; 15.4 m/s)
Visibility: 6 or more miles (10+ km)
Ceiling: at least 12,000 feet AGL
Clouds: few clouds at 3000 feet AGL
Weather: VCSH  (showers in vicinity)

METAR text: RJSI 240600Z 30007KT 250V010 9999 -SHRA FEW020 SCT030 BKN/// 05/M01 Q1019
Conditions at: RJSI (HANAMAKI AIRPORT, JP) observed 0600 UTC 24 January 2020
Temperature: 5.0°C (41°F)
Dewpoint: -1.0°C (30°F) [RH = 65%]
Pressure (altimeter): 30.09 inches Hg (1019.0 mb)
Winds: from the WNW (300 degrees) at 8 MPH (7 knots; 3.6 m/s)
Visibility: 6 or more miles (10+ km)
Ceiling: at least 12,000 feet AGL
Clouds: few clouds at 2000 feet AGL
scattered clouds at 3000 feet AGL
Weather: -SHRA  (light rain showers)

METAR text: RJSI 240500Z 31008KT 270V360 9999 VCSH FEW020 SCT030 07/M00 Q1018
Conditions at: RJSI (HANAMAKI AIRPORT, JP) observed 0500 UTC 24 January 2020
Temperature: 7.0°C (45°F)
Dewpoint: 0.0°C (32°F) [RH = 61%]
Pressure (altimeter): 30.06 inches Hg (1018.0 mb)
Winds: from the NW (310 degrees) at 9 MPH (8 knots; 4.1 m/s)
Visibility: 6 or more miles (10+ km)
Ceiling: at least 12,000 feet AGL
Clouds: few clouds at 2000 feet AGL
scattered clouds at 3000 feet AGL
Weather: VCSH  (showers in vicinity)

METAR text: RJSI 240400Z 28008KT 180V310 9999 -SHRA FEW030 07/00 Q1018
Conditions at: RJSI (HANAMAKI AIRPORT, JP) observed 0400 UTC 24 January 2020
Temperature: 7.0°C (45°F)
Dewpoint: 0.0°C (32°F) [RH = 61%]
Pressure (altimeter): 30.06 inches Hg (1018.0 mb)
Winds: from the W (280 degrees) at 9 MPH (8 knots; 4.1 m/s)
Visibility: 6 or more miles (10+ km)
Ceiling: at least 12,000 feet AGL
Clouds: few clouds at 3000 feet AGL
Weather: -SHRA  (light rain showers)

METAR text: RJSI 240300Z 12003KT 030V190 9999 FEW020 SCT030 BKN040 05/01 Q1019
Conditions at: RJSI (HANAMAKI AIRPORT, JP) observed 0300 UTC 24 January 2020
Temperature: 5.0°C (41°F)
Dewpoint: 1.0°C (34°F) [RH = 75%]
Pressure (altimeter): 30.09 inches Hg (1019.0 mb)
Winds: from the ESE (120 degrees) at 3 MPH (3 knots; 1.5 m/s)
Visibility: 6 or more miles (10+ km)
Ceiling: 4000 feet AGL
Clouds: few clouds at 2000 feet AGL
scattered clouds at 3000 feet AGL
broken clouds at 4000 feet AGL
Weather: no significant weather observed at this time

Forecast for: RJSI (HANAMAKI AIRPORT, JP)
Text: TAF RJSI 251106Z 2512/2618 01005KT 9999 FEW020
Forecast period: 1200 UTC 25 January 2020 to 0300 UTC 26 January 2020
Forecast type: FROM: standard forecast or significant change
Winds: from the N (10 degrees) at 6 MPH (5 knots; 2.6 m/s)
Visibility: 6 or more miles 10+ km)
Ceiling: at least 12,000 feet AGL
Clouds: few clouds at 2000 feet AGL
Weather: no significant weather forecast for this period
Text: BECMG 2603/2606 20004KT
Forecast period: 0300 to 1200 UTC 26 January 2020
Forecast type: BECOMING: Conditions expected to become as follows by 0600 UTC 26 January 2020
Winds: from the SSW (200 degrees) at 5 MPH (4 knots; 2.1 m/s)
Visibility: 6 or more miles 10+ km)
Ceiling: at least 12,000 feet AGL
Clouds: few clouds at 2000 feet AGL
Weather: no significant weather forecast for this period
Text: BECMG 2612/2615 01005KT
Forecast period: 1200 to 1800 UTC 26 January 2020
Forecast type: BECOMING: Conditions expected to become as follows by 1500 UTC 26 January 2020
Winds: from the N (10 degrees) at 6 MPH (5 knots; 2.6 m/s)
Visibility: 6 or more miles 10+ km)
Ceiling: at least 12,000 feet AGL
Clouds: few clouds at 2000 feet AGL
Weather: no significant weather forecast for this period